Řízení letového provozu České republiky  
Aktualizace dat:  07.04.2020 04:35:26 UTC English version
   METEO Zobrazení stránky:  07.04.2020 04:36:28 UTC  
vysvětlivky
METAR EDDB 070420Z 22005KT CAVOK 06/00 Q1026 NOSIG=
METAR EDDC 070420Z 15010KT CAVOK 09/M02 Q1027 NOSIG=
METAR EDDE 070420Z 22008KT CAVOK 05/00 Q1028 NOSIG=
METAR EDDF 070420Z VRB01KT CAVOK 04/01 Q1028 NOSIG=
METAR EDDM 070420Z VRB01KT CAVOK 00/M01 Q1029 NOSIG=
METAR EDDN 070420Z 10005KT CAVOK 03/M01 Q1029 NOSIG=
METAR EDDP 070420Z 23004KT CAVOK 07/02 Q1027 NOSIG=
METAR EDDT 070420Z 31001KT CAVOK 06/01 Q1026 NOSIG=
METAR EDQM NIL
METAR EPBY 070430Z 17005KT 120V210 CAVOK 06/M02 Q1027=
METAR EPGD 070430Z 23007KT 120V270 CAVOK 09/M02 Q1026=
METAR EPKK 070430Z VRB01KT CAVOK 01/M03 Q1032=
METAR EPKT 070430Z 13005KT CAVOK 02/M04 Q1031=
METAR EPLL 070430Z 19003KT 140V220 CAVOK 08/M04 Q1030=
METAR EPPO 070430Z 17004KT CAVOK 04/M03 Q1027=
METAR EPRZ 070430Z VRB01KT CAVOK 02/M03 Q1033=
METAR EPWA 070430Z 15004KT CAVOK 03/M04 Q1031 NOSIG=
METAR EPWR 070430Z 13006KT CAVOK 03/M04 Q1029=
METAR LHBP 070430Z 05002KT CAVOK 02/M05 Q1034 NOSIG=
METAR LHSM 070415Z AUTO 00000KT 9000 NCD M00/M02 Q1032=
METAR LKBC 070430Z AUTO 03002KT CAVOK 04/M03 Q1029=
METAR LKCV 070430Z 17004KT CAVOK 06/M05 Q1030 NOSIG RMK BLU BLU=
METAR LKKB 070430Z VRB02KT CAVOK 04/M03 Q1029 NOSIG RMK BLU BLU=
METAR LKKU NIL
METAR LKKV 070400Z 00000KT CAVOK 02/M01 Q1028 RMK REG QNH 1026=
METAR LKLN 070430Z AUTO VRB01KT CAVOK 02/M01 Q1029=
METAR LKMT 070430Z VRB02KT CAVOK 02/M03 Q1031 NOSIG RMK REG QNH 1026=
METAR LKNA 070430Z 10006KT CAVOK 05/M07 Q1030 NOSIG RMK BLU BLU=
METAR LKPD 070430Z VRB01KT CAVOK 03/M04 Q1030 NOSIG RMK BLU BLU=
METAR LKPJ 070430Z AUTO 30004KT CAVOK M00/M04 Q1032=
METAR LKPR 070430Z VRB01KT CAVOK 05/M03 Q1029 NOSIG RMK REG QNH 1026=
METAR LKTB 070430Z 09010KT CAVOK 06/M06 Q1031 NOSIG RMK REG QNH 1026=
METAR LKVO NIL
METAR LOWI 070420Z 24002KT CAVOK 03/M01 Q1031 NOSIG=
METAR LOWL 070420Z 25003KT CAVOK 04/M00 Q1029 NOSIG=
METAR LOWS 070420Z 15011KT CAVOK 08/M00 Q1029 NOSIG=
METAR LOWW 070420Z 16008KT CAVOK 03/M05 Q1031 NOSIG=
METAR LZIB 070430Z 03005KT CAVOK 00/M05 Q1033 NOSIG=
METAR LZKZ 070430Z 35002KT CAVOK 03/M04 Q1034 NOSIG=
METAR LZMC 070400Z 16010KT CAVOK 09/M07 Q1032=
METAR LZPP 070430Z 31004KT CAVOK M01/M04 Q1033=
METAR LZSL 070430Z /////KT CAVOK M02/M05 Q1035=
METAR LZTT 070430Z VRB01KT CAVOK M02/M06 Q1033 NOSIG=
METAR LZZI 070430Z 09002KT CAVOK M01/M03 Q1033=